Terminal Aerodrome Forecast
Issued by NWS Binghamton, NY

Home | Current Version | Previous Version | Text Only | Print | Product List | Glossary On
Versions: 1 2 3 4 5 6 7 8 9 10 11 12 13 14 15 16 17 18 19
000
FTUS41 KBGM 182300
TAFAVP
TAF
KAVP 182333Z 1900/1924 20010KT P6SM BKN250
     FM190200 22006KT P6SM BKN120
     FM190700 30004KT P6SM BKN080
     FM191200 33012KT P6SM SKC=

USA.gov is the U.S. government's official web portal to all federal, state and local government web resources and services.